Time;durP1;ratioP1;P1;durP2;ratioP2;P2;SDS_P1;SDS_P2;PMS_P1;PMS_P2;Temp;Humidity;BMP_temperature;BMP_pressure;BME280_temperature;BME280_humidity;BME280_pressure;Samples;Min_cycle;Max_cycle;Signal;HPM_P1;HPM_P2
2023/10/10 00:00:04;;;;;;;64.00;35.03;;;;;;;16.82;100.00;102027.16;5032053;28;20037;-73
2023/10/10 00:02:37;;;;;;;65.22;35.30;;;;;;;16.88;100.00;102025.00;5031495;28;20084;-73
2023/10/10 00:05:12;;;;;;;63.97;34.72;;;;;;;16.96;100.00;102027.97;5032295;28;20921;-73
2023/10/10 00:07:37;;;;;;;58.70;32.45;;;;;;;16.93;100.00;102031.78;5033446;28;20087;-73
2023/10/10 00:10:03;;;;;;;50.63;32.15;;;;;;;16.98;100.00;102035.00;5037879;28;20095;-73
2023/10/10 00:12:29;;;;;;;62.58;35.38;;;;;;;17.07;100.00;102026.25;5030637;28;20072;-73
2023/10/10 00:14:57;;;;;;;52.55;30.63;;;;;;;17.05;100.00;102019.25;5029762;28;20794;-73
2023/10/10 00:17:22;;;;;;;60.65;35.00;;;;;;;17.11;100.00;102018.78;5027399;28;20037;-73
2023/10/10 00:20:15;;;;;;;62.00;35.58;;;;;;;17.02;100.00;102020.34;5038007;28;20044;-73
2023/10/10 00:22:42;;;;;;;61.70;34.63;;;;;;;17.03;100.00;102019.34;5026364;28;20130;-73
2023/10/10 00:25:12;;;;;;;69.00;35.38;;;;;;;16.88;100.00;102022.28;5029615;28;20833;-73
2023/10/10 00:27:43;;;;;;;56.05;33.33;;;;;;;17.02;100.00;102024.88;5063224;28;20038;-73
2023/10/10 00:30:11;;;;;;;61.50;36.13;;;;;;;16.98;100.00;102016.13;5027147;28;20155;-74
2023/10/10 00:32:40;;;;;;;56.20;35.10;;;;;;;17.01;100.00;102028.50;5025951;28;20979;-73
2023/10/10 00:35:06;;;;;;;63.95;33.97;;;;;;;17.02;100.00;102023.03;5030264;28;20029;-73
2023/10/10 00:37:34;;;;;;;56.75;33.05;;;;;;;17.04;100.00;102014.81;5026270;28;20137;-73
2023/10/10 00:40:09;;;;;;;62.28;34.13;;;;;;;16.95;100.00;102016.34;5028196;28;20049;-73
2023/10/10 00:42:41;;;;;;;56.08;32.35;;;;;;;16.96;100.00;102015.38;5001156;28;20042;-73
2023/10/10 00:45:15;;;;;;;65.07;36.63;;;;;;;16.92;100.00;102021.97;5022845;28;20040;-73
2023/10/10 00:47:49;;;;;;;52.15;31.83;;;;;;;16.88;100.00;102020.47;5030573;28;20173;-73
2023/10/10 00:50:18;;;;;;;52.88;32.08;;;;;;;16.93;100.00;102020.13;5028950;28;20061;-74
2023/10/10 00:52:46;;;;;;;59.42;34.78;;;;;;;16.95;100.00;102010.09;5036985;28;20073;-73
2023/10/10 00:55:12;;;;;;;59.60;35.30;;;;;;;16.86;100.00;102008.91;5032175;28;20066;-72
2023/10/10 00:57:38;;;;;;;57.15;33.05;;;;;;;16.89;100.00;102008.69;5023829;28;20037;-73
2023/10/10 01:00:09;;;;;;;66.00;36.33;;;;;;;16.93;100.00;102004.81;5052134;28;20042;-73
2023/10/10 01:02:37;;;;;;;53.75;30.92;;;;;;;16.91;100.00;102008.59;5036895;28;20030;-73
2023/10/10 01:05:13;;;;;;;58.50;35.00;;;;;;;16.86;100.00;102003.53;5062008;28;20041;-73
2023/10/10 01:07:47;;;;;;;63.33;35.42;;;;;;;16.68;100.00;102002.13;5028021;28;20176;-74
2023/10/10 01:10:13;;;;;;;65.75;34.40;;;;;;;16.70;100.00;102001.03;5031261;28;20061;-72
2023/10/10 01:12:40;;;;;;;59.40;36.53;;;;;;;16.55;100.00;101996.72;5017926;28;20038;-73
2023/10/10 01:15:26;;;;;;;58.83;34.97;;;;;;;16.46;100.00;101992.81;5033063;28;20029;-72
2023/10/10 01:17:54;;;;;;;58.55;34.63;;;;;;;16.43;100.00;101990.38;5063567;28;20047;-73
2023/10/10 01:20:33;;;;;;;59.72;34.20;;;;;;;16.49;100.00;101984.56;5032678;28;20493;-73
2023/10/10 01:23:02;;;;;;;57.72;32.63;;;;;;;16.50;100.00;101983.56;5031223;28;20040;-73
2023/10/10 01:28:05;;;;;;;58.05;33.20;;;;;;;16.45;100.00;101974.97;5028849;28;20037;-73
2023/10/10 01:30:44;;;;;;;61.95;34.38;;;;;;;16.45;100.00;101972.25;5023513;28;20041;-73
2023/10/10 01:33:14;;;;;;;58.75;36.75;;;;;;;16.44;100.00;101967.00;5026987;28;20048;-74
2023/10/10 01:35:44;;;;;;;66.13;33.72;;;;;;;16.41;100.00;101964.50;5025220;28;20104;-74
2023/10/10 01:38:41;;;;;;;58.22;33.38;;;;;;;16.36;100.00;101969.34;5030119;28;20057;-73
2023/10/10 01:41:15;;;;;;;63.35;35.60;;;;;;;16.21;100.00;101966.75;5027992;28;20041;-74
2023/10/10 01:43:46;;;;;;;61.05;35.50;;;;;;;16.19;100.00;101976.78;5038212;28;20037;-73
2023/10/10 01:46:27;;;;;;;70.68;38.42;;;;;;;16.11;100.00;101970.19;5036229;28;20072;-74
2023/10/10 01:48:57;;;;;;;66.25;36.78;;;;;;;16.18;100.00;101976.88;5029437;28;20042;-74
2023/10/10 01:51:33;;;;;;;58.20;35.10;;;;;;;16.22;100.00;101976.56;5014924;28;20144;-73
2023/10/10 01:54:11;;;;;;;55.33;34.70;;;;;;;16.27;100.00;101968.19;5030583;28;20165;-72
2023/10/10 01:56:38;;;;;;;60.80;35.47;;;;;;;16.18;100.00;101961.59;5031955;28;20044;-73
2023/10/10 01:59:04;;;;;;;56.63;34.28;;;;;;;16.16;100.00;101959.97;5032634;28;20037;-73
2023/10/10 02:01:31;;;;;;;63.30;37.45;;;;;;;15.98;100.00;101957.59;5032017;28;20899;-74
2023/10/10 02:03:58;;;;;;;62.75;38.63;;;;;;;15.88;100.00;101945.72;5033733;28;20081;-73
2023/10/10 02:06:30;;;;;;;67.70;35.45;;;;;;;15.97;100.00;101960.38;5026912;28;20048;-74
2023/10/10 02:11:49;;;;;;;66.85;38.95;;;;;;;15.94;100.00;101950.69;5026942;28;20045;-74
2023/10/10 02:14:18;;;;;;;56.47;35.45;;;;;;;15.94;100.00;101953.38;5027717;28;20030;-74
2023/10/10 02:16:48;;;;;;;74.93;39.15;;;;;;;15.94;100.00;101950.69;5028503;28;20025;-73
2023/10/10 02:19:24;;;;;;;64.90;37.60;;;;;;;15.83;100.00;101949.69;5030792;28;20069;-74
2023/10/10 02:21:51;;;;;;;60.45;34.90;;;;;;;15.79;100.00;101957.97;5025082;28;20038;-73
2023/10/10 02:24:39;;;;;;;62.03;35.50;;;;;;;15.65;100.00;101951.78;5025679;28;20065;-74
2023/10/10 02:27:06;;;;;;;72.60;40.50;;;;;;;15.62;100.00;101951.97;5032955;28;20026;-73
2023/10/10 02:32:09;;;;;;;57.28;34.75;;;;;;;15.69;100.00;101947.94;5028771;28;20045;-73
2023/10/10 02:34:36;;;;;;;68.97;39.85;;;;;;;15.71;100.00;101944.19;5038586;28;20076;-73
2023/10/10 02:37:13;;;;;;;53.20;34.85;;;;;;;15.69;100.00;101947.94;5029960;28;20026;-72
2023/10/10 02:39:46;;;;;;;56.17;34.75;;;;;;;15.67;100.00;101939.97;5022963;28;20042;-73
2023/10/10 02:42:19;;;;;;;47.53;30.85;;;;;;;15.65;100.00;101936.50;5033549;28;20634;-73
2023/10/10 02:44:52;;;;;;;55.22;33.08;;;;;;;15.58;100.00;101947.75;5028652;28;20037;-73
2023/10/10 02:47:30;;;;;;;35.45;20.98;;;;;;;15.47;100.00;101940.41;5021142;28;20156;-74
2023/10/10 02:50:12;;;;;;;50.80;29.77;;;;;;;15.48;100.00;101944.81;5018909;28;20049;-73
2023/10/10 02:52:45;;;;;;;63.58;35.45;;;;;;;15.46;100.00;101933.28;5034689;28;20928;-73
2023/10/10 02:55:21;;;;;;;58.53;35.40;;;;;;;15.48;100.00;101943.00;5029841;28;20030;-73
2023/10/10 02:57:47;;;;;;;58.00;33.95;;;;;;;15.45;100.00;101951.25;5021935;28;20116;-73
2023/10/10 03:00:16;;;;;;;56.67;35.22;;;;;;;15.43;100.00;101936.19;5014104;28;20049;-73
2023/10/10 03:02:56;;;;;;;51.75;31.95;;;;;;;15.29;100.00;101940.66;5026305;28;20030;-73
2023/10/10 03:05:39;;;;;;;51.13;32.38;;;;;;;15.29;100.00;101945.16;5028936;28;20129;-74
2023/10/10 03:08:13;;;;;;;51.97;32.85;;;;;;;15.23;100.00;101946.44;5057819;27;20128;-74
2023/10/10 03:10:45;;;;;;;57.65;35.53;;;;;;;15.26;100.00;101940.88;5027869;28;20038;-73
2023/10/10 03:17:05;;;;;;;60.85;37.85;;;;;;;15.27;100.00;101936.34;5043882;28;20042;-73
2023/10/10 03:21:51;;;;;;;66.20;38.88;;;;;;;15.21;100.00;101928.66;5030330;28;20120;-73
2023/10/10 03:29:20;;;;;;;48.92;31.63;;;;;;;15.19;100.00;101934.16;5047220;28;20044;-73
2023/10/10 03:31:50;;;;;;;60.08;35.65;;;;;;;15.08;100.00;101931.31;5035250;28;20034;-73
2023/10/10 03:34:30;;;;;;;53.92;36.35;;;;;;;15.17;100.00;101928.03;5018563;28;20040;-73
2023/10/10 03:38:04;;;;;;;64.40;38.25;;;;;;;15.19;100.00;101923.41;5065165;28;20053;-73
2023/10/10 05:24:17;;;;;;;416.05;81.25;;;;;;;15.79;100.00;101871.91;5021119;28;20112;-73
2023/10/10 05:26:48;;;;;;;400.38;74.45;;;;;;;15.75;100.00;101867.69;5021146;28;20029;-74
2023/10/10 05:29:19;;;;;;;233.57;64.35;;;;;;;15.75;100.00;101873.06;5026061;28;20033;-74
2023/10/10 05:31:45;;;;;;;355.95;73.38;;;;;;;15.72;100.00;101875.13;5042802;28;20630;-73
2023/10/10 05:34:11;;;;;;;580.42;98.57;;;;;;;15.63;100.00;101875.72;5031789;28;20057;-74
2023/10/10 05:36:36;;;;;;;305.65;74.65;;;;;;;15.66;100.00;101873.72;5029872;28;20042;-74
2023/10/10 05:39:02;;;;;;;245.05;72.15;;;;;;;15.66;100.00;101876.41;5026132;28;20044;-74
2023/10/10 05:41:28;;;;;;;240.27;71.82;;;;;;;15.69;100.00;101886.94;5018795;28;20046;-73
2023/10/10 05:43:56;;;;;;;383.77;88.00;;;;;;;15.76;100.00;101876.63;5065430;28;20060;-74
2023/10/10 05:46:21;;;;;;;490.90;91.82;;;;;;;15.82;100.00;101868.16;5019791;28;20134;-73
2023/10/10 05:48:47;;;;;;;432.13;88.47;;;;;;;15.73;100.00;101858.88;5025323;28;20052;-74
2023/10/10 05:51:13;;;;;;;378.88;87.95;;;;;;;15.73;100.00;101869.63;5024614;28;20046;-73
2023/10/10 05:53:39;;;;;;;224.60;73.38;;;;;;;15.76;100.00;101869.44;5015401;28;20034;-75
2023/10/10 05:56:15;;;;;;;229.27;74.07;;;;;;;15.84;100.00;101871.59;5033138;28;20884;-73
2023/10/10 05:58:44;;;;;;;326.00;91.40;;;;;;;15.84;100.00;101868.91;5036429;28;20042;-74
2023/10/10 06:01:14;;;;;;;211.20;72.45;;;;;;;15.91;100.00;101864.78;5029247;28;20087;-74
2023/10/10 06:03:46;;;;;;;289.90;79.93;;;;;;;15.74;100.00;101854.34;5017776;28;20116;-73
2023/10/10 06:06:13;;;;;;;;;;;;;;;15.83;100.00;101867.19;5030279;28;20565;-74
2023/10/10 06:08:41;;;;;;;295.85;84.20;;;;;;;15.83;100.00;101861.78;5030761;28;20033;-73
2023/10/10 06:11:07;;;;;;;194.45;74.20;;;;;;;15.86;100.00;101864.25;5028087;28;20041;-74
2023/10/10 06:13:38;;;;;;;214.52;78.45;;;;;;;15.86;100.00;101855.31;5027315;28;20041;-74
2023/10/10 06:16:12;;;;;;;250.07;88.00;;;;;;;15.89;100.00;101853.28;5028533;28;20029;-74
2023/10/10 06:18:44;;;;;;;239.32;88.95;;;;;;;15.80;100.00;101843.16;5017403;28;20037;-74
2023/10/10 06:21:10;;;;;;;;;;;;;;;15.78;100.00;101843.28;5021355;28;20050;-75
2023/10/10 06:23:36;;;;;;;272.00;93.13;;;;;;;15.77;100.00;101854.16;5025447;28;19920;-74
2023/10/10 06:26:04;;;;;;;295.63;95.47;;;;;;;15.85;100.00;101851.78;5026679;28;20921;-74
2023/10/10 06:28:35;;;;;;;222.85;87.90;;;;;;;15.90;100.00;101855.00;5058875;28;20542;-74
2023/10/10 06:31:02;;;;;;;307.20;99.88;;;;;;;15.95;100.00;101846.63;5021315;28;20038;-73
2023/10/10 06:33:28;;;;;;;277.65;101.45;;;;;;;15.90;100.00;101849.63;5032785;28;20041;-74
2023/10/10 06:36:18;;;;;;;275.00;101.10;;;;;;;15.92;100.00;101844.16;5026910;28;20042;-73
2023/10/10 06:38:43;;;;;;;186.52;84.55;;;;;;;15.89;100.00;101841.69;5025511;28;20959;-74
2023/10/10 06:41:17;;;;;;;221.80;91.03;;;;;;;15.85;100.00;101840.16;5032509;28;20049;-74
2023/10/10 06:43:46;;;;;;;224.30;94.68;;;;;;;15.94;100.00;101837.69;5035632;28;20041;-74
2023/10/10 06:46:17;;;;;;;221.63;93.43;;;;;;;16.09;100.00;101837.59;5025448;28;20033;-74
2023/10/10 06:48:43;;;;;;;189.52;91.25;;;;;;;16.19;100.00;101836.81;5032361;28;21006;-73
2023/10/10 06:51:09;;;;;;;173.50;90.55;;;;;;;16.27;100.00;101820.16;5032068;28;20068;-73
2023/10/10 06:53:35;;;;;;;184.10;88.65;;;;;;;16.44;100.00;101832.38;5038924;28;21102;-73
2023/10/10 06:56:17;;;;;;;189.65;89.00;;;;;;;16.63;100.00;101827.38;5026313;28;20040;-74
2023/10/10 06:58:47;;;;;;;196.13;92.65;;;;;;;16.82;100.00;101825.09;5021905;28;20045;-74
2023/10/10 07:01:18;;;;;;;166.80;87.47;;;;;;;16.94;100.00;101823.31;5023376;28;20620;-74
2023/10/10 07:03:49;;;;;;;157.55;84.80;;;;;;;17.19;100.00;101824.16;5024962;28;20339;-74
2023/10/10 07:06:20;;;;;;;172.38;83.78;;;;;;;17.27;100.00;101816.34;5019042;28;20080;-75
2023/10/10 07:08:49;;;;;;;163.52;83.55;;;;;;;17.27;100.00;101803.75;5028905;28;20038;-75
2023/10/10 07:11:20;;;;;;;166.95;81.07;;;;;;;17.35;100.00;101803.16;5023957;28;20166;-74
2023/10/10 07:13:58;;;;;;;138.35;77.55;;;;;;;17.36;100.00;101807.56;5018852;28;20045;-74
2023/10/10 07:16:23;;;;;;;135.98;76.35;;;;;;;17.20;100.00;101798.94;5023627;28;20033;-74
2023/10/10 07:18:56;;;;;;;123.18;70.82;;;;;;;17.18;100.00;101795.50;5028177;28;20093;-74
2023/10/10 07:21:36;;;;;;;126.53;72.13;;;;;;;16.95;100.00;101798.06;5024146;28;20081;-74
2023/10/10 07:24:14;;;;;;;125.90;70.05;;;;;;;17.15;100.00;101799.28;5025828;28;20029;-74
2023/10/10 07:26:41;;;;;;;133.55;70.07;;;;;;;17.25;100.00;101802.13;5014304;28;20144;-74
2023/10/10 07:31:53;;;;;;;118.13;64.82;;;;;;;17.82;100.00;101804.91;5027168;28;21147;-74
2023/10/10 07:34:24;;;;;;;110.93;63.30;;;;;;;17.92;100.00;101810.41;5037503;28;20947;-74
2023/10/10 07:36:50;;;;;;;105.30;62.47;;;;;;;17.78;100.00;101813.34;5022751;28;20029;-75
2023/10/10 07:39:36;;;;;;;89.97;57.55;;;;;;;17.57;100.00;101805.94;5029917;28;20041;-75
2023/10/10 07:42:09;;;;;;;98.55;58.08;;;;;;;17.64;100.00;101811.69;5033812;28;20151;-74
2023/10/10 07:44:35;;;;;;;95.35;55.45;;;;;;;17.40;100.00;101816.28;5030868;28;20038;-74
2023/10/10 07:49:35;;;;;;;88.78;52.88;;;;;;;17.34;100.00;101806.81;5024735;28;20068;-74
2023/10/10 07:52:04;;;;;;;84.93;51.30;;;;;;;17.46;100.00;101808.56;5031122;28;20917;-75
2023/10/10 07:54:38;;;;;;;73.60;46.28;;;;;;;17.34;100.00;101812.22;5028044;28;20030;-74
2023/10/10 07:57:07;;;;;;;67.13;42.17;;;;;;;17.20;100.00;101815.97;5024612;28;20044;-74
2023/10/10 07:59:36;;;;;;;62.55;37.83;;;;;;;16.98;100.00;101818.56;5028712;28;20080;-74
2023/10/10 08:02:19;;;;;;;57.60;37.67;;;;;;;17.20;100.00;101810.56;5038432;28;20033;-74
2023/10/10 08:04:49;;;;;;;61.00;37.83;;;;;;;17.19;100.00;101814.25;5013784;28;21260;-75
2023/10/10 08:07:18;;;;;;;59.67;38.92;;;;;;;17.26;100.00;101806.53;5023127;28;20049;-74
2023/10/10 08:09:45;;;;;;;59.17;36.60;;;;;;;17.14;100.00;101804.78;5026392;28;20049;-73
2023/10/10 08:12:13;;;;;;;60.78;38.15;;;;;;;17.27;100.00;101802.84;5027729;28;20037;-73
2023/10/10 08:14:39;;;;;;;46.17;32.90;;;;;;;17.15;100.00;101801.97;5025985;28;20038;-74
2023/10/10 08:17:19;;;;;;;54.10;36.20;;;;;;;17.18;100.00;101788.28;5066766;28;20215;-73
2023/10/10 08:19:51;;;;;;;56.35;35.65;;;;;;;17.31;100.00;101793.56;5024754;28;20049;-74
2023/10/10 08:22:25;;;;;;;50.13;33.38;;;;;;;17.46;100.00;101786.13;5020233;28;20069;-74
2023/10/10 08:24:53;;;;;;;55.35;34.90;;;;;;;17.49;100.00;101781.38;5032983;28;20033;-73
2023/10/10 08:27:22;;;;;;;50.85;33.65;;;;;;;17.47;100.00;101780.66;5025306;28;20033;-74
2023/10/10 08:29:50;;;;;;;45.78;32.35;;;;;;;17.52;100.00;101780.25;5029837;28;20029;-73
2023/10/10 08:32:16;;;;;;;51.50;29.67;;;;;;;17.44;100.00;101775.47;5036347;28;20091;-73
2023/10/10 08:34:42;;;;;;;50.55;30.17;;;;;;;17.53;100.00;101773.91;5031583;28;20149;-73
2023/10/10 08:37:09;;;;;;;43.40;29.75;;;;;;;17.73;100.00;101773.25;5031613;28;20079;-74
2023/10/10 08:39:35;;;;;;;40.65;29.15;;;;;;;17.59;100.00;101778.81;5030476;28;20037;-73
2023/10/10 08:42:10;;;;;;;42.25;28.05;;;;;;;17.47;100.00;101787.84;5020791;28;20849;-73
2023/10/10 08:44:38;;;;;;;41.60;28.10;;;;;;;17.82;100.00;101787.81;5034722;28;20038;-73
2023/10/10 08:47:06;;;;;;;46.97;27.80;;;;;;;17.89;100.00;101785.53;5031566;28;20188;-75
2023/10/10 08:49:33;;;;;;;41.13;27.42;;;;;;;17.74;100.00;101783.06;5031158;28;20149;-74
2023/10/10 08:52:02;;;;;;;43.35;26.85;;;;;;;18.08;100.00;101780.38;5036619;28;20048;-73
2023/10/10 08:54:29;;;;;;;40.03;25.63;;;;;;;18.10;100.00;101778.41;5039506;28;20108;-74
2023/10/10 08:57:03;;;;;;;39.10;25.45;;;;;;;18.27;100.00;101769.81;5020281;28;20041;-73
2023/10/10 08:59:31;;;;;;;35.65;25.05;;;;;;;18.06;100.00;101774.22;5027112;28;20034;-73
2023/10/10 09:02:17;;;;;;;37.70;23.98;;;;;;;18.25;100.00;101770.91;5024713;28;20057;-74
2023/10/10 09:04:43;;;;;;;47.95;25.25;;;;;;;18.34;100.00;101780.97;5056944;28;21112;-73
2023/10/10 09:07:11;;;;;;;36.45;24.55;;;;;;;18.38;100.00;101771.66;5044415;28;20045;-74
2023/10/10 09:09:40;;;;;;;41.38;24.80;;;;;;;18.20;100.00;101776.69;5024338;28;20041;-74
2023/10/10 09:12:14;;;;;;;36.00;23.38;;;;;;;18.41;100.00;101773.22;5023554;28;20037;-73
2023/10/10 09:14:42;;;;;;;39.97;24.30;;;;;;;18.18;100.00;101772.41;5026761;28;20025;-73
2023/10/10 09:17:32;;;;;;;36.65;22.85;;;;;;;18.68;100.00;101765.59;5030158;28;21077;-73
2023/10/10 09:19:58;;;;;;;39.80;24.60;;;;;;;18.67;100.00;101766.53;5032204;28;20063;-73
2023/10/10 09:22:42;;;;;;;39.40;25.17;;;;;;;18.45;100.00;101772.84;5032793;28;20041;-73
2023/10/10 09:25:26;;;;;;;46.15;26.08;;;;;;;18.52;100.00;101770.50;5025207;28;20120;-73
2023/10/10 09:28:04;;;;;;;42.40;26.83;;;;;;;18.61;100.00;101761.63;5027908;28;20037;-73
2023/10/10 09:30:40;;;;;;;40.90;26.90;;;;;;;18.87;100.00;101759.50;5037095;28;20060;-73
2023/10/10 09:36:08;;;;;;;40.03;25.90;;;;;;;18.70;100.00;101751.94;5023616;28;20286;-74
2023/10/10 09:38:36;;;;;;;40.20;26.60;;;;;;;18.78;100.00;101749.47;5030579;28;20768;-74
2023/10/10 09:41:10;;;;;;;41.85;26.15;;;;;;;18.77;100.00;101747.75;5031495;28;20042;-73
2023/10/10 09:44:25;;;;;;;37.92;26.35;;;;;;;18.79;100.00;101748.50;5026951;28;20033;-74
2023/10/10 09:47:12;;;;;;;42.28;27.00;;;;;;;18.48;100.00;101758.25;5032080;28;20038;-73
2023/10/10 09:57:42;;;;;;;39.30;27.15;;;;;;;18.69;100.00;101755.66;5022637;28;20042;-73
2023/10/10 10:00:15;;;;;;;38.00;26.38;;;;;;;18.68;100.00;101754.78;5025139;28;20132;-73
2023/10/10 10:02:47;;;;;;;36.28;26.90;;;;;;;18.92;100.00;101749.16;5027414;28;20954;-73
2023/10/10 10:05:18;;;;;;;42.53;26.83;;;;;;;19.12;100.00;101750.16;5028112;28;20042;-74
2023/10/10 10:08:00;;;;;;;39.95;25.90;;;;;;;19.20;100.00;101742.28;5031485;28;20039;-74
2023/10/10 10:10:52;;;;;;;42.70;25.42;;;;;;;19.29;100.00;101740.63;5031896;28;20045;-74
2023/10/10 10:13:37;;;;;;;39.25;25.83;;;;;;;19.22;100.00;101736.72;5036233;28;20033;-74
2023/10/10 10:16:25;;;;;;;42.33;27.42;;;;;;;19.22;100.00;101739.44;5026930;28;20064;-73
2023/10/10 10:19:11;;;;;;;43.28;25.80;;;;;;;19.30;100.00;101734.22;5021538;28;20167;-73
2023/10/10 10:21:51;;;;;;;43.00;27.52;;;;;;;19.15;100.00;101736.41;5029245;28;20100;-74
2023/10/10 10:24:44;;;;;;;40.85;24.98;;;;;;;19.46;100.00;101745.44;5029424;28;20033;-73
2023/10/10 10:27:25;;;;;;;40.83;24.65;;;;;;;19.38;100.00;101745.25;5010830;28;20053;-72
2023/10/10 10:29:55;;;;;;;44.05;25.90;;;;;;;19.62;100.00;101740.44;5033069;28;20041;-73
2023/10/10 10:32:24;;;;;;;41.17;25.73;;;;;;;19.66;100.00;101730.22;5025878;28;20122;-74
2023/10/10 10:34:56;;;;;;;35.05;24.38;;;;;;;19.73;100.00;101736.81;5026584;28;20036;-73
2023/10/10 10:37:24;;;;;;;45.90;26.42;;;;;;;19.63;100.00;101739.47;5059793;28;20834;-74
2023/10/10 10:42:46;;;;;;;41.78;25.70;;;;;;;19.79;100.00;101728.16;5028196;28;20038;-74
2023/10/10 10:45:38;;;;;;;35.00;23.50;;;;;;;19.90;100.00;101730.75;5029073;28;20848;-73
2023/10/10 10:49:05;;;;;;;38.17;24.38;;;;;;;20.11;100.00;101724.41;5022330;28;21023;-73
2023/10/10 10:51:02;;;;;;;38.38;23.60;;;;;;;20.14;100.00;101721.44;5025454;28;20048;-73
2023/10/10 10:53:35;;;;;;;42.75;26.10;;;;;;;20.23;100.00;101719.72;5032297;28;20025;-74
2023/10/10 11:01:23;;;;;;;35.40;22.88;;;;;;;20.31;100.00;101709.94;5027276;28;20123;-73
2023/10/10 11:03:52;;;;;;;41.70;25.88;;;;;;;20.25;100.00;101715.06;5023292;28;20052;-73
2023/10/10 11:06:20;;;;;;;35.63;23.55;;;;;;;20.47;100.00;101716.69;5023268;28;20166;-74
2023/10/10 11:14:03;;;;;;;43.13;23.30;;;;;;;20.71;100.00;101721.72;5036731;28;20981;-73
2023/10/10 11:16:39;;;;;;;;;;;;;;;20.58;100.00;101716.56;5030931;28;20026;-73
2023/10/10 11:21:48;;;;;;;38.50;22.50;;;;;;;20.76;100.00;101714.00;5026974;28;20073;-74
2023/10/10 11:24:24;;;;;;;35.45;22.92;;;;;;;20.87;100.00;101712.00;5027599;28;20037;-73
2023/10/10 11:29:45;;;;;;;38.42;21.52;;;;;;;21.02;100.00;101700.72;5027563;28;20048;-73
2023/10/10 11:32:24;;;;;;;33.00;22.67;;;;;;;21.08;100.00;101694.72;5025833;28;20033;-73
2023/10/10 11:34:52;;;;;;;34.22;22.20;;;;;;;21.01;100.00;101690.88;5029825;28;20564;-73
2023/10/10 11:37:30;;;;;;;34.70;21.73;;;;;;;21.22;100.00;101697.00;5023038;28;21163;-73
2023/10/10 11:40:19;;;;;;;37.40;21.98;;;;;;;21.25;100.00;101690.44;5029465;28;20045;-73
2023/10/10 11:42:47;;;;;;;34.55;20.65;;;;;;;21.25;100.00;101683.16;5022142;28;20041;-73
2023/10/10 11:45:19;;;;;;;32.15;19.40;;;;;;;21.36;100.00;101680.28;5028049;28;20124;-73
2023/10/10 11:47:47;;;;;;;32.28;20.23;;;;;;;21.29;100.00;101679.16;5030830;28;20037;-74
2023/10/10 11:50:15;;;;;;;30.00;21.17;;;;;;;21.44;100.00;101677.72;5031506;28;20063;-73
2023/10/10 11:52:53;;;;;;;31.30;20.30;;;;;;;21.33;100.00;101674.28;5030627;28;20040;-74
2023/10/10 11:55:20;;;;;;;33.70;19.73;;;;;;;21.29;100.00;101670.16;5023635;28;20034;-73
2023/10/10 11:57:49;;;;;;;32.97;19.08;;;;;;;21.37;100.00;101668.44;5030998;28;20029;-74
2023/10/10 12:00:22;;;;;;;32.85;19.35;;;;;;;21.54;99.94;101668.69;5037164;28;20087;-73
2023/10/10 12:02:49;;;;;;;34.70;18.90;;;;;;;21.37;98.81;101662.16;5023637;28;20113;-73
2023/10/10 12:05:35;;;;;;;33.08;18.38;;;;;;;21.42;97.34;101659.84;5026540;28;20040;-73
2023/10/10 12:08:06;;;;;;;25.45;17.73;;;;;;;21.39;97.84;101660.16;5022201;28;20034;-73
2023/10/10 12:10:48;;;;;;;29.40;17.23;;;;;;;21.38;96.31;101650.28;5031920;28;20204;-73
2023/10/10 12:13:33;;;;;;;26.75;17.35;;;;;;;21.41;99.04;101656.28;5022819;28;20119;-73
2023/10/10 12:16:07;;;;;;;29.75;18.52;;;;;;;21.34;95.40;101652.47;5031946;28;21008;-74
2023/10/10 12:18:33;;;;;;;30.92;16.67;;;;;;;21.43;96.76;101651.53;5030757;28;20543;-73
2023/10/10 12:21:03;;;;;;;26.92;15.95;;;;;;;21.43;97.19;101654.25;5029563;28;20156;-73
2023/10/10 12:23:32;;;;;;;29.45;17.63;;;;;;;21.53;95.46;101647.94;5025427;28;20155;-74
2023/10/10 12:26:03;;;;;;;27.55;16.33;;;;;;;21.51;94.58;101649.97;5031723;28;20033;-73
2023/10/10 12:28:28;;;;;;;32.30;17.30;;;;;;;21.37;95.04;101645.88;5038471;28;20033;-73
2023/10/10 12:30:56;;;;;;;30.85;17.65;;;;;;;21.38;97.75;101643.00;5033943;28;20738;-73
2023/10/10 12:33:25;;;;;;;31.42;15.98;;;;;;;21.49;98.26;101641.97;5030826;28;21014;-74
2023/10/10 12:35:51;;;;;;;29.27;16.50;;;;;;;21.71;96.28;101638.88;5034520;28;20076;-73
2023/10/10 12:38:21;;;;;;;31.63;17.85;;;;;;;21.49;96.39;101638.38;5023532;28;20082;-74
2023/10/10 12:40:50;;;;;;;31.20;17.05;;;;;;;21.67;94.27;101637.47;5031437;28;20041;-73
2023/10/10 12:43:20;;;;;;;33.53;16.98;;;;;;;21.75;95.81;101625.84;5028841;28;20111;-73
2023/10/10 12:45:47;;;;;;;28.63;17.13;;;;;;;21.73;95.43;101625.13;5023069;28;20076;-74
2023/10/10 12:48:14;;;;;;;23.85;15.45;;;;;;;21.83;94.79;101631.38;5031399;28;20072;-73
2023/10/10 12:50:44;;;;;;;27.10;15.50;;;;;;;21.97;96.94;101625.44;5029143;28;20041;-74
2023/10/10 12:53:15;;;;;;;25.13;14.88;;;;;;;22.14;91.96;101626.53;5025192;28;20038;-74
2023/10/10 12:55:51;;;;;;;25.85;16.13;;;;;;;22.18;92.26;101624.31;5029318;28;20366;-73
2023/10/10 12:58:22;;;;;;;27.60;15.32;;;;;;;22.07;93.10;101614.50;5023353;28;20045;-73
2023/10/10 13:00:52;;;;;;;29.73;15.25;;;;;;;22.09;90.83;101620.66;5030993;28;20042;-74
2023/10/10 13:03:28;;;;;;;29.13;15.75;;;;;;;22.08;89.71;101609.91;5033912;28;20034;-74
2023/10/10 13:06:02;;;;;;;25.55;15.82;;;;;;;22.06;89.05;101611.94;5028931;28;20048;-73
2023/10/10 13:08:39;;;;;;;24.98;14.32;;;;;;;22.13;90.41;101613.06;5022789;28;20037;-73
2023/10/10 13:11:15;;;;;;;26.55;14.27;;;;;;;22.21;90.38;101615.88;5027530;28;20038;-74
2023/10/10 13:14:32;;;;;;;25.35;14.85;;;;;;;22.07;88.03;101610.94;5041471;28;20030;-74
2023/10/10 13:19:06;;;;;;;22.58;14.48;;;;;;;22.32;87.65;101612.94;5029418;28;20049;-73
2023/10/10 13:21:36;;;;;;;28.48;14.55;;;;;;;22.33;86.30;101613.78;5027013;28;20164;-74
2023/10/10 13:24:03;;;;;;;24.27;13.32;;;;;;;22.31;87.23;101610.38;5035313;28;20044;-73
2023/10/10 13:26:28;;;;;;;28.70;14.55;;;;;;;22.29;85.90;101610.53;5018858;28;20060;-72
2023/10/10 13:28:54;;;;;;;28.27;14.23;;;;;;;22.33;83.53;101605.63;5025747;28;20044;-73
2023/10/10 13:31:24;;;;;;;22.38;13.30;;;;;;;22.45;84.35;101607.97;5034293;28;20042;-73
2023/10/10 13:33:50;;;;;;;23.05;13.65;;;;;;;22.49;85.52;101600.34;5009940;28;20038;-73
2023/10/10 13:36:16;;;;;;;25.70;13.95;;;;;;;22.46;87.77;101606.94;5021234;28;20037;-73
2023/10/10 13:38:47;;;;;;;24.83;13.52;;;;;;;22.56;85.22;101606.03;5039145;28;20281;-73
2023/10/10 13:41:23;;;;;;;25.85;13.05;;;;;;;22.68;83.72;101604.75;5029244;28;20092;-73
2023/10/10 13:43:52;;;;;;;21.58;12.52;;;;;;;22.65;82.03;101610.53;5026541;28;20116;-74
2023/10/10 13:46:19;;;;;;;25.30;12.73;;;;;;;22.63;81.56;101596.22;5024042;28;20029;-73
2023/10/10 13:48:45;;;;;;;22.95;12.73;;;;;;;22.54;79.21;101605.31;5028283;28;20071;-73
2023/10/10 13:51:13;;;;;;;23.50;13.45;;;;;;;22.34;80.33;101588.31;5027202;28;20038;-73
2023/10/10 13:53:40;;;;;;;21.67;12.52;;;;;;;22.57;78.60;101600.41;5028667;28;20046;-73
2023/10/10 13:56:07;;;;;;;23.25;12.63;;;;;;;22.68;77.70;101604.75;5023151;28;20091;-75
2023/10/10 13:58:34;;;;;;;21.42;10.93;;;;;;;22.57;79.43;101602.28;5025714;28;20022;-74
2023/10/10 14:03:57;;;;;;;19.58;11.73;;;;;;;22.62;81.43;101586.34;5036415;28;20222;-74
2023/10/10 14:06:26;;;;;;;24.55;12.13;;;;;;;22.70;80.30;101586.44;5021909;28;20602;-73